createdAt,value
2023-08-23T00:00:21.492Z,12.20
2023-08-23T00:02:53.403Z,18.20
2023-08-23T00:05:23.506Z,12.50
2023-08-23T00:07:54.144Z,11.95
2023-08-23T00:10:24.371Z,11.52
2023-08-23T00:12:58.371Z,11.98
2023-08-23T00:15:30.120Z,13.13
2023-08-23T00:18:00.433Z,14.02
2023-08-23T00:20:30.797Z,13.20
2023-08-23T00:23:00.808Z,15.05
2023-08-23T00:25:30.563Z,13.40
2023-08-23T00:28:12.575Z,12.05
2023-08-23T00:30:51.701Z,12.85
2023-08-23T00:33:21.873Z,13.00
2023-08-23T00:35:53.651Z,9.27
2023-08-23T00:38:24.507Z,4.93
2023-08-23T00:40:54.522Z,3.40
2023-08-23T00:43:24.484Z,3.42
2023-08-23T00:45:57.712Z,2.88
2023-08-23T00:48:31.469Z,2.58
2023-08-23T00:51:02.121Z,13.43
2023-08-23T00:53:33.682Z,3.55
2023-08-23T00:56:03.784Z,3.50
2023-08-23T00:58:34.881Z,3.13
2023-08-23T01:01:08.072Z,7.63
2023-08-23T01:03:43.747Z,4.57
2023-08-23T01:06:22.348Z,4.40
2023-08-23T01:09:01.870Z,3.50
2023-08-23T01:11:45.951Z,5.55
2023-08-23T01:14:25.029Z,4.15
2023-08-23T01:16:55.492Z,4.40
2023-08-23T01:19:37.241Z,4.57
2023-08-23T01:22:11.990Z,4.25
2023-08-23T01:24:44.699Z,6.25
2023-08-23T01:27:15.361Z,5.07
2023-08-23T01:29:49.620Z,5.90
2023-08-23T01:32:38.094Z,5.10
2023-08-23T01:35:19.773Z,5.07
2023-08-23T01:37:54.850Z,3.58
2023-08-23T01:40:25.260Z,4.65
2023-08-23T01:42:56.503Z,4.72
2023-08-23T01:45:26.640Z,6.13
2023-08-23T01:47:56.702Z,5.75
2023-08-23T01:50:28.310Z,4.88
2023-08-23T01:52:58.571Z,4.63
2023-08-23T01:55:28.823Z,4.53
2023-08-23T01:57:59.913Z,3.90
2023-08-23T02:00:29.951Z,4.32
2023-08-23T02:03:00.193Z,5.15
2023-08-23T02:05:33.418Z,5.72
2023-08-23T02:08:03.772Z,5.60
2023-08-23T02:10:34.639Z,5.75
2023-08-23T02:13:08.858Z,4.32
2023-08-23T02:15:39.508Z,4.68
2023-08-23T02:18:09.642Z,5.10
2023-08-23T02:20:41.695Z,5.10
2023-08-23T02:23:11.807Z,4.88
2023-08-23T02:25:46.788Z,5.80
2023-08-23T02:28:17.507Z,4.88
2023-08-23T02:30:50.133Z,4.30
2023-08-23T02:33:21.117Z,5.28
2023-08-23T02:35:51.448Z,4.93
2023-08-23T02:38:22.144Z,5.93
2023-08-23T02:40:52.528Z,5.53
2023-08-23T02:43:26.384Z,4.50
2023-08-23T02:45:58.159Z,5.25
2023-08-23T02:48:28.445Z,3.80
2023-08-23T02:50:58.916Z,3.50
2023-08-23T02:53:29.340Z,4.43
2023-08-23T02:55:59.670Z,5.35
2023-08-23T02:58:29.787Z,3.53
2023-08-23T03:00:59.911Z,3.40
2023-08-23T03:03:30.084Z,4.00
2023-08-23T03:06:00.925Z,4.00
2023-08-23T03:08:31.057Z,2.95
2023-08-23T03:11:05.737Z,3.60
2023-08-23T03:13:36.297Z,3.95
2023-08-23T03:16:07.247Z,4.18
2023-08-23T03:18:37.560Z,4.53
2023-08-23T03:21:09.158Z,4.70
2023-08-23T03:23:42.379Z,3.50
2023-08-23T03:26:12.608Z,4.15
2023-08-23T03:28:42.940Z,3.90
2023-08-23T03:31:14.441Z,3.50
2023-08-23T03:33:46.717Z,4.03
2023-08-23T03:36:16.830Z,3.42
2023-08-23T03:38:49.712Z,3.58
2023-08-23T03:41:19.818Z,3.95
2023-08-23T03:43:50.169Z,4.28
2023-08-23T03:46:24.602Z,4.00
2023-08-23T03:48:59.702Z,4.35
2023-08-23T03:51:30.182Z,4.55
2023-08-23T03:54:00.618Z,5.10
2023-08-23T03:56:30.938Z,4.55
2023-08-23T03:59:02.970Z,5.03
2023-08-23T04:01:33.198Z,4.80
2023-08-23T04:04:04.357Z,5.88
2023-08-23T04:06:36.238Z,4.30
2023-08-23T04:09:06.429Z,4.47
2023-08-23T04:11:37.220Z,5.72
2023-08-23T04:14:08.497Z,3.97
2023-08-23T04:16:39.216Z,3.70
2023-08-23T04:19:10.013Z,4.72
2023-08-23T04:21:40.631Z,4.07
2023-08-23T04:24:11.084Z,4.63
2023-08-23T04:26:41.174Z,4.50
2023-08-23T04:29:13.903Z,4.50
2023-08-23T04:31:44.818Z,4.10
2023-08-23T04:34:26.939Z,4.35
2023-08-23T04:36:56.934Z,4.07
2023-08-23T04:39:28.185Z,5.95
2023-08-23T04:42:00.041Z,4.90
2023-08-23T04:44:32.360Z,6.50
2023-08-23T04:47:03.931Z,3.80
2023-08-23T04:49:34.210Z,3.55
2023-08-23T04:52:05.113Z,4.10
2023-08-23T04:54:35.329Z,4.10
2023-08-23T04:57:07.864Z,3.40
2023-08-23T04:59:38.561Z,4.10
2023-08-23T05:02:09.793Z,3.70
2023-08-23T05:04:41.046Z,3.38
2023-08-23T05:07:17.481Z,3.90
2023-08-23T05:09:47.677Z,3.90
2023-08-23T05:12:19.240Z,3.38
2023-08-23T05:14:49.381Z,3.90
2023-08-23T05:17:20.793Z,3.70
2023-08-23T05:19:51.461Z,3.80
2023-08-23T05:22:22.482Z,4.07
2023-08-23T05:24:52.521Z,3.85
2023-08-23T05:27:25.792Z,3.95
2023-08-23T05:29:59.062Z,4.30
2023-08-23T05:32:29.484Z,4.13
2023-08-23T05:35:00.285Z,3.95
2023-08-23T05:37:30.431Z,3.92
2023-08-23T05:40:01.505Z,3.70
2023-08-23T05:42:32.905Z,3.53
2023-08-23T05:45:02.979Z,4.22
2023-08-23T05:47:35.511Z,4.30
2023-08-23T05:50:06.399Z,4.45
2023-08-23T05:52:36.497Z,4.80
2023-08-23T05:55:10.133Z,4.53
2023-08-23T05:57:42.520Z,4.28
2023-08-23T06:00:13.669Z,4.70
2023-08-23T06:02:45.739Z,3.58
2023-08-23T06:05:16.397Z,4.38
2023-08-23T06:07:47.508Z,4.80
2023-08-23T06:10:18.706Z,3.78
2023-08-23T06:12:49.713Z,3.70
2023-08-23T06:15:19.808Z,3.95
2023-08-23T06:17:51.995Z,4.53
2023-08-23T06:20:22.534Z,4.18
2023-08-23T06:22:52.863Z,5.25
2023-08-23T06:25:23.254Z,5.68
2023-08-23T06:27:53.672Z,5.45
2023-08-23T06:30:24.555Z,4.97
2023-08-23T06:32:54.634Z,4.00
2023-08-23T06:35:26.827Z,3.97
2023-08-23T06:37:56.843Z,4.15
2023-08-23T06:40:27.416Z,3.55
2023-08-23T06:42:57.629Z,4.32
2023-08-23T06:45:28.526Z,4.20
2023-08-23T06:47:58.619Z,4.30
2023-08-23T06:50:28.784Z,4.95
2023-08-23T06:52:58.912Z,5.03
2023-08-23T06:55:29.459Z,4.32
2023-08-23T06:58:02.331Z,3.72
2023-08-23T07:00:35.374Z,4.60
2023-08-23T07:03:06.667Z,4.10
2023-08-23T07:05:37.100Z,3.80
2023-08-23T07:08:20.571Z,3.65
2023-08-23T07:10:50.647Z,4.03
2023-08-23T07:13:21.370Z,3.97
2023-08-23T07:15:51.760Z,3.35
2023-08-23T07:18:22.501Z,4.30
2023-08-23T07:20:52.605Z,4.90
2023-08-23T07:23:23.045Z,5.00
2023-08-23T07:25:53.744Z,4.78
2023-08-23T07:28:26.826Z,5.53
2023-08-23T07:31:00.496Z,4.43
2023-08-23T07:33:30.664Z,4.50
2023-08-23T07:36:02.292Z,5.47
2023-08-23T07:38:35.892Z,4.70
2023-08-23T07:41:06.298Z,4.40
2023-08-23T07:43:39.268Z,5.75
2023-08-23T07:46:09.545Z,5.57
2023-08-23T07:48:42.436Z,3.95
2023-08-23T07:51:12.898Z,4.07
2023-08-23T07:53:45.549Z,4.40
2023-08-23T07:56:16.090Z,4.15
2023-08-23T07:58:46.765Z,4.65
2023-08-23T08:01:17.064Z,3.75
2023-08-23T08:03:47.084Z,3.88
2023-08-23T08:06:17.736Z,3.97
2023-08-23T08:08:47.739Z,4.00
2023-08-23T08:11:18.523Z,3.92
2023-08-23T08:13:49.241Z,4.35
2023-08-23T08:16:19.806Z,4.40
2023-08-23T08:18:49.944Z,5.03
2023-08-23T08:21:25.733Z,3.97
2023-08-23T08:23:57.631Z,3.97
2023-08-23T08:26:28.303Z,4.88
2023-08-23T08:28:58.274Z,8.52
2023-08-23T08:31:32.302Z,8.73
2023-08-23T08:34:03.562Z,4.53
2023-08-23T08:36:33.578Z,5.25
2023-08-23T08:39:03.941Z,5.10
2023-08-23T08:41:34.298Z,5.88
2023-08-23T08:44:05.018Z,5.53
2023-08-23T08:46:37.994Z,9.68
2023-08-23T08:49:08.552Z,7.80
2023-08-23T08:51:39.939Z,7.13
2023-08-23T08:54:10.728Z,5.60
2023-08-23T08:56:43.584Z,5.18
2023-08-23T08:59:17.228Z,4.60
2023-08-23T09:01:47.342Z,4.60
2023-08-23T09:04:18.708Z,4.28
2023-08-23T09:06:48.837Z,6.20
2023-08-23T09:09:19.819Z,5.57
2023-08-23T09:11:50.106Z,5.72
2023-08-23T09:14:23.498Z,5.47
2023-08-23T09:16:55.820Z,5.00
2023-08-23T09:19:29.405Z,6.63
2023-08-23T09:22:08.111Z,6.82
2023-08-23T09:24:41.366Z,5.93
2023-08-23T09:27:17.397Z,5.72
2023-08-23T09:29:56.769Z,6.25
2023-08-23T09:32:30.937Z,5.60
2023-08-23T09:35:11.759Z,5.53
2023-08-23T09:37:46.955Z,6.35
2023-08-23T09:40:24.021Z,6.18
2023-08-23T09:42:59.214Z,6.00
2023-08-23T09:45:31.081Z,6.03
2023-08-23T09:48:05.037Z,6.32
2023-08-23T09:50:35.422Z,5.80
2023-08-23T09:53:15.033Z,6.13
2023-08-23T09:55:45.573Z,6.53
2023-08-23T09:58:15.896Z,6.57
2023-08-23T10:00:50.938Z,5.57
2023-08-23T10:03:22.038Z,6.10
2023-08-23T10:05:56.119Z,5.70
2023-08-23T10:08:26.606Z,6.68
2023-08-23T10:10:56.944Z,5.50
2023-08-23T10:13:28.015Z,5.45
2023-08-23T10:15:59.185Z,5.65
2023-08-23T10:18:35.491Z,5.50
2023-08-23T10:21:06.190Z,6.25
2023-08-23T10:23:38.433Z,5.68
2023-08-23T10:26:20.651Z,5.60
2023-08-23T10:28:55.551Z,5.72
2023-08-23T10:31:29.436Z,5.82
2023-08-23T10:34:00.931Z,6.03
2023-08-23T10:36:33.217Z,5.45
2023-08-23T10:39:06.182Z,6.40
2023-08-23T10:41:37.185Z,5.97
2023-08-23T10:44:17.387Z,5.32
2023-08-23T10:46:48.316Z,5.93
2023-08-23T10:49:18.701Z,4.90
2023-08-23T10:51:50.019Z,5.88
2023-08-23T10:54:20.037Z,5.25
2023-08-23T10:56:53.032Z,5.13
2023-08-23T10:59:23.397Z,5.30
2023-08-23T11:01:56.890Z,11.48
2023-08-23T11:04:29.247Z,20.40
2023-08-23T11:07:00.863Z,5.30
2023-08-23T11:09:30.970Z,5.43
2023-08-23T11:12:01.373Z,6.68
2023-08-23T11:14:34.394Z,5.60
2023-08-23T11:17:09.469Z,5.40
2023-08-23T11:19:45.157Z,8.68
2023-08-23T11:22:19.697Z,6.60
2023-08-23T11:24:52.463Z,7.53
2023-08-23T11:27:22.487Z,6.60
2023-08-23T11:29:53.209Z,6.50
2023-08-23T11:32:24.005Z,6.28
2023-08-23T11:34:58.006Z,5.60
2023-08-23T11:37:28.103Z,6.28
2023-08-23T11:40:02.997Z,6.82
2023-08-23T11:42:33.593Z,5.47
2023-08-23T11:45:09.612Z,5.45
2023-08-23T11:47:42.527Z,12.52
2023-08-23T11:50:13.052Z,6.07
2023-08-23T11:52:43.791Z,6.60
2023-08-23T11:55:14.170Z,6.55
2023-08-23T11:57:44.127Z,7.47
2023-08-23T12:00:14.238Z,6.88
2023-08-23T12:02:44.342Z,5.80
2023-08-23T12:05:17.065Z,5.72
2023-08-23T12:07:48.096Z,5.60
2023-08-23T12:10:27.398Z,5.70
2023-08-23T12:12:58.073Z,6.53
2023-08-23T12:15:28.534Z,6.82
2023-08-23T12:17:59.738Z,6.82
2023-08-23T12:20:30.612Z,6.50
2023-08-23T12:23:01.506Z,6.25
2023-08-23T12:25:33.935Z,5.57
2023-08-23T12:28:09.921Z,8.20
2023-08-23T12:30:40.690Z,5.80
2023-08-23T12:33:12.000Z,4.55
2023-08-23T12:35:46.644Z,5.18
2023-08-23T12:38:17.096Z,5.00
2023-08-23T12:40:47.176Z,4.07
2023-08-23T12:43:17.385Z,4.00
2023-08-23T12:45:48.102Z,4.63
2023-08-23T12:48:18.658Z,5.13
2023-08-23T12:50:49.033Z,5.03
2023-08-23T12:53:21.647Z,4.78
2023-08-23T12:55:56.060Z,4.18
2023-08-23T12:58:26.921Z,4.53
2023-08-23T13:01:09.290Z,4.55
2023-08-23T13:03:39.551Z,4.85
2023-08-23T13:06:10.181Z,4.60
2023-08-23T13:08:41.926Z,4.72
2023-08-23T13:11:12.050Z,5.20
2023-08-23T13:13:43.514Z,4.68
2023-08-23T13:16:14.232Z,5.32
2023-08-23T13:18:44.350Z,5.10
2023-08-23T13:21:14.951Z,5.35
2023-08-23T13:23:47.621Z,5.80
2023-08-23T13:26:18.325Z,5.20
2023-08-23T13:28:48.776Z,5.88
2023-08-23T13:31:19.059Z,5.32
2023-08-23T13:33:50.856Z,4.55
2023-08-23T13:36:26.834Z,5.60
2023-08-23T13:38:57.122Z,5.35
2023-08-23T13:41:27.605Z,5.57
2023-08-23T13:44:02.174Z,6.35
2023-08-23T13:46:32.352Z,6.90
2023-08-23T13:49:02.395Z,5.30
2023-08-23T13:51:32.696Z,6.95
2023-08-23T13:54:02.799Z,5.43
2023-08-23T13:56:32.633Z,5.70
2023-08-23T13:59:05.808Z,6.05
2023-08-23T14:01:36.977Z,15.88
2023-08-23T14:04:07.158Z,6.40
2023-08-23T14:06:37.633Z,6.15
2023-08-23T14:09:12.472Z,5.80
2023-08-23T14:11:42.959Z,12.45
2023-08-23T14:14:14.286Z,10.60
2023-08-23T14:16:44.812Z,11.38
2023-08-23T14:19:21.302Z,10.85
2023-08-23T14:21:51.536Z,10.65
2023-08-23T14:24:22.722Z,6.13
2023-08-23T14:26:52.706Z,5.55
2023-08-23T14:29:23.677Z,12.48
2023-08-23T14:31:54.526Z,9.55
2023-08-23T14:34:25.853Z,6.35
2023-08-23T14:36:59.114Z,5.75
2023-08-23T14:39:29.982Z,5.20
2023-08-23T14:42:03.140Z,5.78
2023-08-23T14:44:33.294Z,5.05
2023-08-23T14:47:03.421Z,5.32
2023-08-23T14:49:33.769Z,4.88
2023-08-23T14:52:03.887Z,4.93
2023-08-23T14:54:37.427Z,3.55
2023-08-23T14:57:10.807Z,3.70
2023-08-23T14:59:42.425Z,3.53
2023-08-23T15:02:15.715Z,4.03
2023-08-23T15:04:47.041Z,3.20
2023-08-23T15:07:20.510Z,3.70
2023-08-23T15:09:53.990Z,4.10
2023-08-23T15:12:27.304Z,4.82
2023-08-23T15:15:02.476Z,4.45
2023-08-23T15:17:33.598Z,4.57
2023-08-23T15:20:03.869Z,4.25
2023-08-23T15:22:34.045Z,3.92
2023-08-23T15:25:04.786Z,4.65
2023-08-23T15:27:43.178Z,3.60
2023-08-23T15:30:15.108Z,4.03
2023-08-23T15:32:48.921Z,3.67
2023-08-23T15:35:21.706Z,3.65
2023-08-23T15:37:52.190Z,4.05
2023-08-23T15:40:23.085Z,4.47
2023-08-23T15:42:56.361Z,4.63
2023-08-23T15:45:29.478Z,4.47
2023-08-23T15:47:59.830Z,4.07
2023-08-23T15:50:30.071Z,4.05
2023-08-23T15:53:03.158Z,4.10
2023-08-23T15:55:36.178Z,4.28
2023-08-23T15:58:15.079Z,4.07
2023-08-23T16:00:49.556Z,4.32
2023-08-23T16:03:22.639Z,4.45
2023-08-23T16:06:03.049Z,4.78
2023-08-23T16:08:33.061Z,4.13
2023-08-23T16:11:06.146Z,4.65
2023-08-23T16:13:37.527Z,4.30
2023-08-23T16:16:07.892Z,4.40
2023-08-23T16:18:38.724Z,4.32
2023-08-23T16:21:35.249Z,4.47
2023-08-23T16:24:06.025Z,4.80
2023-08-23T16:26:36.691Z,4.10
2023-08-23T16:29:07.281Z,5.13
2023-08-23T16:31:38.045Z,5.13
2023-08-23T16:34:09.318Z,6.07
2023-08-23T16:36:57.234Z,3.70
2023-08-23T16:39:36.887Z,3.03
2023-08-23T16:42:07.268Z,3.42
2023-08-23T16:44:38.833Z,3.20
2023-08-23T16:47:11.779Z,3.60
2023-08-23T16:50:00.301Z,4.47
2023-08-23T16:52:33.477Z,4.22
2023-08-23T16:55:07.205Z,5.13
2023-08-23T16:57:49.004Z,3.83
2023-08-23T17:00:19.300Z,3.80
2023-08-23T17:02:52.336Z,3.70
2023-08-23T17:05:22.971Z,4.55
2023-08-23T17:07:52.972Z,3.90
2023-08-23T17:10:25.363Z,3.95
2023-08-23T17:12:57.051Z,4.13
2023-08-23T17:15:28.046Z,4.82
2023-08-23T17:18:01.358Z,4.68
2023-08-23T17:20:31.453Z,4.35
2023-08-23T17:23:02.665Z,4.47
2023-08-23T17:25:32.675Z,4.82
2023-08-23T17:28:05.284Z,5.25
2023-08-23T17:30:38.749Z,5.10
2023-08-23T17:33:10.389Z,5.30
2023-08-23T17:35:40.433Z,5.22
2023-08-23T17:38:13.064Z,6.20
2023-08-23T17:41:01.988Z,5.90
2023-08-23T17:43:33.107Z,4.97
2023-08-23T17:46:03.322Z,4.45
2023-08-23T17:48:33.944Z,4.45
2023-08-23T17:51:03.985Z,3.83
2023-08-23T17:53:37.262Z,3.85
2023-08-23T17:56:07.881Z,4.05
2023-08-23T17:58:40.969Z,3.80
2023-08-23T18:01:17.571Z,4.55
2023-08-23T18:03:48.049Z,3.60
2023-08-23T18:06:18.587Z,3.40
2023-08-23T18:08:51.246Z,3.58
2023-08-23T18:11:21.213Z,4.07
2023-08-23T18:13:54.443Z,4.05
2023-08-23T18:16:33.180Z,3.95
2023-08-23T18:19:03.683Z,3.83
2023-08-23T18:21:42.709Z,4.53
2023-08-23T18:24:18.381Z,3.78
2023-08-23T18:26:56.974Z,4.68
2023-08-23T18:29:29.866Z,4.82
2023-08-23T18:32:03.315Z,5.18
2023-08-23T18:34:59.464Z,4.25
2023-08-23T18:37:29.424Z,5.00
2023-08-23T18:40:00.187Z,5.57
2023-08-23T18:45:40.608Z,5.22
2023-08-23T18:48:39.751Z,4.78
2023-08-23T18:51:10.274Z,4.40
2023-08-23T18:53:43.473Z,5.18
2023-08-23T18:56:16.635Z,4.80
2023-08-23T18:58:51.809Z,4.63
2023-08-23T19:01:24.333Z,4.78
2023-08-23T19:04:04.056Z,5.18
2023-08-23T19:06:34.343Z,5.22
2023-08-23T19:09:04.593Z,4.60
2023-08-23T19:11:34.821Z,5.13
2023-08-23T19:14:13.431Z,4.30
2023-08-23T19:16:43.702Z,4.70
2023-08-23T19:19:13.743Z,5.20
2023-08-23T19:21:43.496Z,5.15
2023-08-23T19:24:13.935Z,5.53
2023-08-23T19:26:49.323Z,6.65
2023-08-23T19:29:20.509Z,7.53
2023-08-23T19:32:06.211Z,7.78
2023-08-23T19:34:37.373Z,9.40
2023-08-23T19:37:08.864Z,9.38
2023-08-23T19:39:39.301Z,9.88
2023-08-23T19:42:09.263Z,8.75
2023-08-23T19:44:42.654Z,9.55
2023-08-23T19:47:16.056Z,9.82
2023-08-23T19:49:49.111Z,9.60
2023-08-23T19:52:19.082Z,8.00
2023-08-23T19:54:51.682Z,7.03
2023-08-23T19:57:35.125Z,7.40
2023-08-23T20:00:09.281Z,7.30
2023-08-23T20:02:48.130Z,7.47
2023-08-23T20:05:18.664Z,7.63
2023-08-23T20:07:49.354Z,7.85
2023-08-23T20:10:19.711Z,7.20
2023-08-23T20:12:49.990Z,6.20
2023-08-23T20:15:20.060Z,6.32
2023-08-23T20:17:52.032Z,6.68
2023-08-23T20:20:22.599Z,5.90
2023-08-23T20:22:53.402Z,19.33
2023-08-23T20:25:24.305Z,8.10
2023-08-23T20:27:54.599Z,6.78
2023-08-23T20:30:26.695Z,6.60
2023-08-23T20:32:57.929Z,6.53
2023-08-23T20:35:30.916Z,6.07
2023-08-23T20:38:04.648Z,6.35
2023-08-23T20:40:35.396Z,5.72
2023-08-23T20:43:08.288Z,6.32
2023-08-23T20:45:41.233Z,6.55
2023-08-23T20:48:13.117Z,7.10
2023-08-23T20:50:44.104Z,7.60
2023-08-23T20:53:14.333Z,8.93
2023-08-23T20:55:44.446Z,8.50
2023-08-23T20:58:15.087Z,8.93
2023-08-23T21:00:47.421Z,8.70
2023-08-23T21:03:19.460Z,8.25
2023-08-23T21:05:49.371Z,8.15
2023-08-23T21:08:23.310Z,8.60
2023-08-23T21:10:53.992Z,7.47
2023-08-23T21:13:24.145Z,7.82
2023-08-23T21:15:55.008Z,7.00
2023-08-23T21:18:26.534Z,7.20
2023-08-23T21:20:57.685Z,6.95
2023-08-23T21:23:29.440Z,6.80
2023-08-23T21:25:59.716Z,7.68
2023-08-23T21:28:29.913Z,7.75
2023-08-23T21:31:03.892Z,7.63
2023-08-23T21:33:36.815Z,7.25
2023-08-23T21:36:07.008Z,7.45
2023-08-23T21:38:37.083Z,7.57
2023-08-23T21:41:07.833Z,7.82
2023-08-23T21:43:40.417Z,8.15
2023-08-23T21:46:10.823Z,7.80
2023-08-23T21:48:41.211Z,8.40
2023-08-23T21:51:11.148Z,8.32
2023-08-23T21:53:41.548Z,8.90
2023-08-23T21:56:11.773Z,8.48
2023-08-23T21:58:41.474Z,9.32
2023-08-23T22:01:11.602Z,8.80
2023-08-23T22:03:43.001Z,8.07
2023-08-23T22:06:14.461Z,8.05
2023-08-23T22:08:46.576Z,8.40
2023-08-23T22:11:18.476Z,7.90
2023-08-23T22:13:48.446Z,7.82
2023-08-23T22:16:18.526Z,7.93
2023-08-23T22:18:48.858Z,11.13
2023-08-23T22:21:19.931Z,15.02
2023-08-23T22:23:49.821Z,11.52
2023-08-23T22:26:22.507Z,10.82
2023-08-23T22:28:52.851Z,8.40
2023-08-23T22:31:22.924Z,13.80
2023-08-23T22:33:53.897Z,10.60
2023-08-23T22:36:24.121Z,9.10
2023-08-23T22:38:54.705Z,9.07
2023-08-23T22:41:25.328Z,9.52
2023-08-23T22:43:56.777Z,8.27
2023-08-23T22:46:32.435Z,8.25
2023-08-23T22:49:03.017Z,8.68
2023-08-23T22:51:32.963Z,8.27
2023-08-23T22:54:03.277Z,8.88
2023-08-23T22:56:33.192Z,10.45
2023-08-23T22:59:03.176Z,10.40
2023-08-23T23:01:36.528Z,9.93
2023-08-23T23:04:06.659Z,9.20
2023-08-23T23:06:36.404Z,10.27
2023-08-23T23:09:07.187Z,9.02
2023-08-23T23:11:37.770Z,9.18
2023-08-23T23:14:08.385Z,11.52
2023-08-23T23:16:38.652Z,10.20
2023-08-23T23:19:09.027Z,9.35
2023-08-23T23:21:39.022Z,7.60
2023-08-23T23:24:09.116Z,11.65
2023-08-23T23:26:39.072Z,13.35
2023-08-23T23:29:11.961Z,12.52
2023-08-23T23:31:42.989Z,16.73
2023-08-23T23:34:13.485Z,13.63
2023-08-23T23:36:43.503Z,9.30
2023-08-23T23:39:13.877Z,8.55
2023-08-23T23:41:44.511Z,8.55
2023-08-23T23:44:15.041Z,6.43
2023-08-23T23:46:48.458Z,7.85
2023-08-23T23:49:18.513Z,8.85
2023-08-23T23:51:49.258Z,10.05
2023-08-23T23:54:19.600Z,16.10
2023-08-23T23:56:51.239Z,11.85
2023-08-23T23:59:21.700Z,9.57
